LIMW/AOT METAR and TAF weather

Enter ICAO airport designator
Station Type Date Time Source
LIMW METAR 2020/06/05 18:50 UTC NOAA

LIMW 051850Z AUTO 25012KT 210V290 9999 FEW110/// 20/04 Q1004


Station Type Date Time Source
LIMW Decoded METAR 2020/06/05 18:50 UTC NOAA

Station name not available
Jun 05, 2020 - 02:50 PM EDT / 2020.06.05 1850 UTC
Wind: from the WSW (250 degrees) at 14 MPH (12 KT) (direction variable):0
Visibility: greater than 7 mile(s):0
Sky conditions: mostly clear
Temperature: 68 F (20 C)
Dew Point: 39 F (4 C)
Relative Humidity: 34%
Pressure (altimeter): 29.65 in. Hg (1004 hPa)
ob: LIMW 051850Z AUTO 25012KT 210V290 9999 FEW110/// 20/04 Q1004
cycle: 19

Station Type Date Time Source
LIMW TAF UTC NOAA

Error!

Example: see airport list